Terminal Aerodrome Forecast
Issued by NWS Sioux Falls, SD

Home | Current Version | Previous Version | Graphics & Text | Print | Product List | Glossary On
Versions: 1 2 3 4 5 6 7 8 9 10 11 12 13 14 15 16 17 18 19 20 21
575
FTUS43 KFSD 021413 AAB
TAFHON
TAF AMD
KHON 021413Z 0214/0312 35004KT P6SM SCT015 OVC035
      TEMPO 0214/0217 BKN015
     FM021700 33005KT P6SM OVC025
     FM030300 23004KT P6SM SCT035
     FM031100 18006KT P6SM BKN050=

USA.gov is the U.S. government's official web portal to all federal, state and local government web resources and services.